createdAt,value
2019-01-25T00:01:11.244Z,5.40
2019-01-25T00:04:00.819Z,5.27
2019-01-25T00:06:43.492Z,5.80
2019-01-25T00:11:57.403Z,5.53
2019-01-25T00:14:27.899Z,5.67
2019-01-25T00:17:17.968Z,6.33
2019-01-25T00:22:35.278Z,5.20
2019-01-25T00:25:24.917Z,5.17
2019-01-25T00:28:06.637Z,5.23
2019-01-25T00:30:49.189Z,5.50
2019-01-25T00:33:31.237Z,4.73
2019-01-25T00:36:13.722Z,4.80
2019-01-25T00:38:56.103Z,5.00
2019-01-25T00:41:38.706Z,4.03
2019-01-25T00:44:21.035Z,4.60
2019-01-25T00:47:02.836Z,4.97
2019-01-25T00:49:33.682Z,4.80
2019-01-25T00:52:23.476Z,5.37
2019-01-25T00:55:05.343Z,4.70
2019-01-25T00:57:35.915Z,5.10
2019-01-25T01:00:28.585Z,4.83
2019-01-25T01:06:02.919Z,4.13
2019-01-25T01:08:52.583Z,4.53
2019-01-25T01:11:42.155Z,3.83
2019-01-25T01:17:08.942Z,5.03
2019-01-25T01:19:51.831Z,4.40
2019-01-25T01:22:34.979Z,4.93
2019-01-25T01:25:17.078Z,4.30
2019-01-25T01:28:00.688Z,5.57
2019-01-25T01:30:31.708Z,4.83
2019-01-25T01:33:22.864Z,4.83
2019-01-25T01:36:05.034Z,5.43
2019-01-25T01:38:46.838Z,5.03
2019-01-25T01:41:29.427Z,4.60
2019-01-25T01:44:12.362Z,4.57
2019-01-25T01:46:55.139Z,4.77
2019-01-25T01:49:37.195Z,5.93
2019-01-25T01:52:19.389Z,4.37
2019-01-25T01:55:01.469Z,4.03
2019-01-25T01:57:31.978Z,3.70
2019-01-25T02:00:20.755Z,4.17
2019-01-25T02:03:03.235Z,4.53
2019-01-25T02:05:33.860Z,4.10
2019-01-25T02:08:06.053Z,3.73
2019-01-25T02:10:49.546Z,4.30
2019-01-25T02:13:20.146Z,4.13
2019-01-25T02:16:09.719Z,4.63
2019-01-25T02:18:59.398Z,4.57
2019-01-25T02:21:43.215Z,5.03
2019-01-25T02:24:26.858Z,6.10
2019-01-25T02:27:10.020Z,5.80
2019-01-25T02:29:52.672Z,5.67
2019-01-25T02:32:23.688Z,6.07
2019-01-25T02:35:13.359Z,4.87
2019-01-25T02:37:47.241Z,4.90
2019-01-25T02:40:21.766Z,5.00
2019-01-25T02:43:11.399Z,5.10
2019-01-25T02:45:41.932Z,5.00
2019-01-25T02:48:31.519Z,4.23
2019-01-25T02:51:21.344Z,5.45
2019-01-25T02:54:11.294Z,5.12
2019-01-25T02:56:42.184Z,5.90
2019-01-25T02:59:31.768Z,4.10
2019-01-25T03:02:22.154Z,4.23
2019-01-25T03:05:04.688Z,3.93
2019-01-25T03:07:35.207Z,4.87
2019-01-25T03:10:29.196Z,3.73
2019-01-25T03:13:27.635Z,4.00
2019-01-25T03:15:58.162Z,4.63
2019-01-25T03:18:47.958Z,5.57
2019-01-25T03:21:39.111Z,5.70
2019-01-25T03:24:23.344Z,4.80
2019-01-25T03:27:05.690Z,5.10
2019-01-25T03:29:48.186Z,5.47
2019-01-25T03:32:19.299Z,5.87
2019-01-25T03:34:50.306Z,6.50
2019-01-25T03:37:21.286Z,4.70
2019-01-25T03:40:13.987Z,4.80
2019-01-25T03:42:44.958Z,4.97
2019-01-25T03:45:34.573Z,5.10
2019-01-25T03:48:24.416Z,5.00
2019-01-25T03:51:14.033Z,5.47
2019-01-25T03:53:44.827Z,6.00
2019-01-25T03:56:34.422Z,5.30
2019-01-25T03:59:16.872Z,5.20
2019-01-25T04:04:39.222Z,5.50
2019-01-25T04:07:28.557Z,5.30
2019-01-25T04:12:40.174Z,5.30
2019-01-25T04:18:49.343Z,5.70
2019-01-25T04:21:33.217Z,5.33
2019-01-25T04:26:43.734Z,5.63
2019-01-25T04:29:16.219Z,5.40
2019-01-25T04:32:05.915Z,5.33
2019-01-25T04:34:49.924Z,5.67
2019-01-25T04:37:20.453Z,5.13
2019-01-25T04:43:15.857Z,5.63
2019-01-25T04:45:46.378Z,5.00
2019-01-25T04:48:37.530Z,6.20
2019-01-25T04:51:19.608Z,5.50
2019-01-25T04:54:02.731Z,6.03
2019-01-25T04:56:38.592Z,5.67
2019-01-25T05:02:20.896Z,5.77
2019-01-25T05:04:51.418Z,5.77
2019-01-25T05:07:41.011Z,7.27
2019-01-25T05:10:23.100Z,6.60
2019-01-25T05:13:05.259Z,6.72
2019-01-25T05:15:35.779Z,5.80
2019-01-25T05:18:25.421Z,5.90
2019-01-25T05:21:34.359Z,6.70
2019-01-25T05:24:18.380Z,6.17
2019-01-25T05:27:00.796Z,6.83
2019-01-25T05:29:54.682Z,6.73
2019-01-25T05:32:45.839Z,6.87
2019-01-25T05:35:28.023Z,7.47
2019-01-25T05:38:10.300Z,7.77
2019-01-25T05:40:52.115Z,6.67
2019-01-25T05:43:22.948Z,6.63
2019-01-25T05:46:12.554Z,6.30
2019-01-25T05:49:02.137Z,7.80
2019-01-25T05:51:33.655Z,10.00
2019-01-25T05:54:24.148Z,8.97
2019-01-25T05:56:54.679Z,9.80
2019-01-25T05:59:25.212Z,6.90
2019-01-25T06:01:55.771Z,7.27
2019-01-25T06:04:47.978Z,6.97
2019-01-25T06:07:30.667Z,7.17
2019-01-25T06:10:01.190Z,6.85
2019-01-25T06:12:53.189Z,7.23
2019-01-25T06:18:27.131Z,7.53
2019-01-25T06:21:16.720Z,7.43
2019-01-25T06:23:47.331Z,7.80
2019-01-25T06:26:36.935Z,7.70
2019-01-25T06:29:19.410Z,7.93
2019-01-25T06:31:52.094Z,8.10
2019-01-25T06:34:22.580Z,8.37
2019-01-25T06:37:12.551Z,8.73
2019-01-25T06:39:54.820Z,7.27
2019-01-25T06:42:36.980Z,7.90
2019-01-25T06:45:19.144Z,8.55
2019-01-25T06:48:01.071Z,7.90
2019-01-25T06:50:44.315Z,7.47
2019-01-25T06:53:26.422Z,7.60
2019-01-25T06:56:08.319Z,8.00
2019-01-25T07:02:15.544Z,7.67
2019-01-25T07:04:57.687Z,7.90
2019-01-25T07:07:41.007Z,7.40
2019-01-25T07:10:23.552Z,8.37
2019-01-25T07:13:06.004Z,7.70
2019-01-25T07:15:48.717Z,8.50
2019-01-25T07:18:31.872Z,7.83
2019-01-25T07:21:02.398Z,8.30
2019-01-25T07:23:32.880Z,7.90
2019-01-25T07:26:22.488Z,8.40
2019-01-25T07:28:53.020Z,9.67
2019-01-25T07:31:42.619Z,8.27
2019-01-25T07:37:44.235Z,8.27
2019-01-25T07:40:33.165Z,7.73
2019-01-25T07:43:15.753Z,7.70
2019-01-25T07:45:58.470Z,7.60
2019-01-25T07:48:40.235Z,8.83
2019-01-25T07:51:10.765Z,8.93
2019-01-25T07:54:00.379Z,8.15
2019-01-25T07:56:30.954Z,8.57
2019-01-25T07:59:20.551Z,8.93
2019-01-25T08:02:02.810Z,8.77
2019-01-25T08:07:29.040Z,8.47
2019-01-25T08:09:59.591Z,8.73
2019-01-25T08:12:49.129Z,8.83
2019-01-25T08:15:31.042Z,7.83
2019-01-25T08:18:13.235Z,8.20
2019-01-25T08:20:55.041Z,9.10
2019-01-25T08:23:38.872Z,8.63
2019-01-25T08:26:20.806Z,8.40
2019-01-25T08:31:34.443Z,9.43
2019-01-25T08:34:24.062Z,8.70
2019-01-25T08:37:13.940Z,9.23
2019-01-25T08:39:56.269Z,9.80
2019-01-25T08:42:38.346Z,9.13
2019-01-25T08:45:21.075Z,9.43
2019-01-25T08:47:51.579Z,9.07
2019-01-25T08:50:23.751Z,9.60
2019-01-25T08:53:05.477Z,8.97
2019-01-25T08:55:36.071Z,9.40
2019-01-25T08:58:25.627Z,9.80
2019-01-25T09:00:56.310Z,9.40
2019-01-25T09:03:45.919Z,9.80
2019-01-25T09:06:27.887Z,8.43
2019-01-25T09:09:17.491Z,8.57
2019-01-25T09:11:48.024Z,9.73
2019-01-25T09:14:56.984Z,8.90
2019-01-25T09:17:27.483Z,8.83
2019-01-25T09:20:38.175Z,9.33
2019-01-25T09:23:18.247Z,8.40
2019-01-25T09:26:01.325Z,8.97
2019-01-25T09:28:31.875Z,9.27
2019-01-25T09:31:02.730Z,9.20
2019-01-25T09:33:52.356Z,8.93
2019-01-25T09:36:41.925Z,8.70
2019-01-25T09:39:24.242Z,9.27
2019-01-25T09:42:06.797Z,9.07
2019-01-25T09:44:49.307Z,9.37
2019-01-25T09:47:34.383Z,8.57
2019-01-25T09:50:16.306Z,9.40
2019-01-25T09:52:47.134Z,9.70
2019-01-25T09:55:19.500Z,9.17
2019-01-25T09:58:10.642Z,9.37
2019-01-25T10:01:05.498Z,9.27
2019-01-25T10:03:47.848Z,8.73
2019-01-25T10:06:18.682Z,9.43
2019-01-25T10:09:30.164Z,8.40
2019-01-25T10:12:19.740Z,8.63
2019-01-25T10:15:01.435Z,8.50
2019-01-25T10:17:43.930Z,8.67
2019-01-25T10:20:27.133Z,8.60
2019-01-25T10:22:58.661Z,9.63
2019-01-25T10:25:48.298Z,8.83
2019-01-25T10:28:33.091Z,8.53
2019-01-25T10:31:16.056Z,8.73
2019-01-25T10:33:46.602Z,8.70
2019-01-25T10:36:36.547Z,8.70
2019-01-25T10:39:18.570Z,8.27
2019-01-25T10:41:49.735Z,7.97
2019-01-25T10:44:40.002Z,8.73
2019-01-25T10:47:10.861Z,8.43
2019-01-25T10:50:00.459Z,8.87
2019-01-25T10:52:31.299Z,8.80
2019-01-25T10:55:02.282Z,8.13
2019-01-25T10:57:52.440Z,8.30
2019-01-25T11:00:25.668Z,8.47
2019-01-25T11:02:58.461Z,8.20
2019-01-25T11:05:47.793Z,8.17
2019-01-25T11:08:19.959Z,8.20
2019-01-25T11:11:10.035Z,8.63
2019-01-25T11:14:00.183Z,8.33
2019-01-25T11:16:42.871Z,9.43
2019-01-25T11:19:13.948Z,7.60
2019-01-25T11:22:03.514Z,7.67
2019-01-25T11:24:53.379Z,7.35
2019-01-25T11:27:43.442Z,8.33
2019-01-25T11:30:14.630Z,8.07
2019-01-25T11:32:45.240Z,7.93
2019-01-25T11:35:34.879Z,8.20
2019-01-25T11:38:25.987Z,8.40
2019-01-25T11:40:56.520Z,8.43
2019-01-25T11:43:27.007Z,8.07
2019-01-25T11:46:38.160Z,8.08
2019-01-25T11:49:27.146Z,8.00
2019-01-25T11:52:09.595Z,8.13
2019-01-25T11:54:52.277Z,8.23
2019-01-25T11:57:34.907Z,7.30
2019-01-25T12:00:29.184Z,8.20
2019-01-25T12:03:11.539Z,7.50
2019-01-25T12:05:54.687Z,7.03
2019-01-25T12:08:25.238Z,6.97
2019-01-25T12:11:14.808Z,6.93
2019-01-25T12:13:45.347Z,6.60
2019-01-25T12:16:34.933Z,6.50
2019-01-25T12:19:18.620Z,6.90
2019-01-25T12:21:50.047Z,7.13
2019-01-25T12:24:39.663Z,7.17
2019-01-25T12:27:29.271Z,7.07
2019-01-25T12:30:11.547Z,7.42
2019-01-25T12:32:54.065Z,7.60
2019-01-25T12:35:36.142Z,7.67
2019-01-25T12:38:06.782Z,8.57
2019-01-25T12:40:56.363Z,8.27
2019-01-25T12:43:26.896Z,8.50
2019-01-25T12:46:16.471Z,8.33
2019-01-25T12:48:58.629Z,7.70
2019-01-25T12:52:08.478Z,8.10
2019-01-25T12:54:50.396Z,8.13
2019-01-25T12:57:32.860Z,8.33
2019-01-25T13:00:15.193Z,8.07
2019-01-25T13:02:56.998Z,8.27
2019-01-25T13:05:39.015Z,7.57
2019-01-25T13:08:09.531Z,7.37
2019-01-25T13:10:59.087Z,7.77
2019-01-25T13:13:49.480Z,7.50
2019-01-25T13:16:19.990Z,7.70
2019-01-25T13:19:09.567Z,7.93
2019-01-25T13:21:40.101Z,7.17
2019-01-25T13:24:29.715Z,8.37
2019-01-25T13:27:00.207Z,7.92
2019-01-25T13:29:31.039Z,6.97
2019-01-25T13:32:20.611Z,8.63
2019-01-25T13:35:10.187Z,7.97
2019-01-25T13:37:52.842Z,7.87
2019-01-25T13:43:18.216Z,7.42
2019-01-25T13:46:00.549Z,8.83
2019-01-25T13:48:42.669Z,8.30
2019-01-25T13:51:25.791Z,8.03
2019-01-25T13:54:08.291Z,7.90
2019-01-25T13:56:38.818Z,8.13
2019-01-25T13:59:09.334Z,7.37
2019-01-25T14:01:58.970Z,7.73
2019-01-25T14:04:41.697Z,8.00
2019-01-25T14:07:24.251Z,7.87
2019-01-25T14:10:06.691Z,8.17
2019-01-25T14:12:48.467Z,7.63
2019-01-25T14:15:19.008Z,7.70
2019-01-25T14:18:08.599Z,8.47
2019-01-25T14:20:51.108Z,8.23
2019-01-25T14:26:17.264Z,8.30
2019-01-25T14:28:59.257Z,8.53
2019-01-25T14:31:29.819Z,9.10
2019-01-25T14:34:19.416Z,7.58
2019-01-25T14:37:02.744Z,7.67
2019-01-25T14:39:46.911Z,8.10
2019-01-25T14:42:17.439Z,8.73
2019-01-25T14:44:47.951Z,7.80
2019-01-25T14:47:18.431Z,8.00
2019-01-25T14:50:29.180Z,7.37
2019-01-25T14:53:18.744Z,7.47
2019-01-25T14:56:01.034Z,7.77
2019-01-25T14:58:42.924Z,8.03
2019-01-25T15:01:25.387Z,7.83
2019-01-25T15:03:56.579Z,7.00
2019-01-25T15:06:46.190Z,7.53
2019-01-25T15:09:28.788Z,7.63
2019-01-25T15:11:59.303Z,7.23
2019-01-25T15:14:29.778Z,7.70
2019-01-25T15:17:19.419Z,8.33
2019-01-25T15:19:49.978Z,7.70
2019-01-25T15:22:20.552Z,8.40
2019-01-25T15:24:51.096Z,8.53
2019-01-25T15:27:21.595Z,8.00
2019-01-25T15:30:30.233Z,8.37
2019-01-25T15:33:12.823Z,7.93
2019-01-25T15:35:55.050Z,8.10
2019-01-25T15:38:38.067Z,8.70
2019-01-25T15:41:08.663Z,9.08
2019-01-25T15:43:59.897Z,8.33
2019-01-25T15:46:49.755Z,8.80
2019-01-25T15:49:39.631Z,9.50
2019-01-25T15:52:29.214Z,8.20
2019-01-25T15:54:59.730Z,8.00
2019-01-25T15:57:50.902Z,8.03
2019-01-25T16:00:27.460Z,7.87
2019-01-25T16:03:16.983Z,7.93
2019-01-25T16:05:47.528Z,8.40
2019-01-25T16:08:37.108Z,7.83
2019-01-25T16:11:19.083Z,7.77
2019-01-25T16:13:50.054Z,8.43
2019-01-25T16:16:39.045Z,8.23
2019-01-25T16:19:18.989Z,6.80
2019-01-25T16:22:00.879Z,7.33
2019-01-25T16:24:43.374Z,8.50
2019-01-25T16:27:13.881Z,8.73
2019-01-25T16:29:44.382Z,9.50
2019-01-25T16:32:15.922Z,9.67
2019-01-25T16:34:48.042Z,8.13
2019-01-25T16:37:37.686Z,8.77
2019-01-25T16:40:27.731Z,8.50
2019-01-25T16:43:17.345Z,8.60
2019-01-25T16:45:59.580Z,8.50
2019-01-25T16:48:30.092Z,8.57
2019-01-25T16:51:19.674Z,7.83
2019-01-25T16:53:50.983Z,9.00
2019-01-25T16:56:40.605Z,9.43
2019-01-25T16:59:30.185Z,9.07
2019-01-25T17:02:12.648Z,9.10
2019-01-25T17:04:54.743Z,8.13
2019-01-25T17:07:25.265Z,9.53
2019-01-25T17:10:15.471Z,9.10
2019-01-25T17:13:06.599Z,7.73
2019-01-25T17:15:49.216Z,7.50
2019-01-25T17:18:19.947Z,8.37
2019-01-25T17:21:09.541Z,9.37
2019-01-25T17:23:40.063Z,8.17
2019-01-25T17:26:31.195Z,8.07
2019-01-25T17:29:13.581Z,8.33
2019-01-25T17:31:45.286Z,8.93
2019-01-25T17:34:15.779Z,8.00
2019-01-25T17:37:06.964Z,8.63
2019-01-25T17:39:50.431Z,8.80
2019-01-25T17:42:32.503Z,8.80
2019-01-25T17:45:14.827Z,8.73
2019-01-25T17:47:57.231Z,8.80
2019-01-25T17:50:27.763Z,8.50
2019-01-25T17:53:17.391Z,7.30
2019-01-25T17:56:02.799Z,7.90
2019-01-25T17:58:45.620Z,8.77
2019-01-25T18:01:16.183Z,8.10
2019-01-25T18:04:05.778Z,8.47
2019-01-25T18:06:47.552Z,8.10
2019-01-25T18:09:30.203Z,8.60
2019-01-25T18:12:12.132Z,8.53
2019-01-25T18:14:54.791Z,8.40
2019-01-25T18:17:36.553Z,9.07
2019-01-25T18:20:08.775Z,8.53
2019-01-25T18:22:58.856Z,8.63
2019-01-25T18:25:51.593Z,8.27
2019-01-25T18:28:43.055Z,7.87
2019-01-25T18:31:32.948Z,8.77
2019-01-25T18:34:15.349Z,8.63
2019-01-25T18:36:45.991Z,8.70
2019-01-25T18:39:35.611Z,8.50
2019-01-25T18:42:17.456Z,8.47
2019-01-25T18:44:48.045Z,8.80
2019-01-25T18:47:37.740Z,7.83
2019-01-25T18:50:27.342Z,7.50
2019-01-25T18:53:09.480Z,8.18
2019-01-25T18:55:51.949Z,8.73
2019-01-25T18:58:27.026Z,8.33
2019-01-25T19:00:58.000Z,8.23
2019-01-25T19:03:50.705Z,7.50
2019-01-25T19:07:00.839Z,8.23
2019-01-25T19:09:43.183Z,8.40
2019-01-25T19:12:13.787Z,7.97
2019-01-25T19:14:44.303Z,7.60
2019-01-25T19:17:34.267Z,8.03
2019-01-25T19:20:26.246Z,8.20
2019-01-25T19:23:08.877Z,8.10
2019-01-25T19:25:51.511Z,8.60
2019-01-25T19:28:22.463Z,8.77
2019-01-25T19:31:12.125Z,8.10
2019-01-25T19:33:42.848Z,8.00
2019-01-25T19:36:32.491Z,7.67
2019-01-25T19:39:22.515Z,8.77
2019-01-25T19:42:12.181Z,8.10
2019-01-25T19:44:42.721Z,8.13
2019-01-25T19:47:13.236Z,7.70
2019-01-25T19:50:01.767Z,8.70
2019-01-25T19:52:33.251Z,8.40
2019-01-25T19:55:23.723Z,8.03
2019-01-25T19:58:14.559Z,8.75
2019-01-25T20:00:46.361Z,7.27
2019-01-25T20:03:37.988Z,7.70
2019-01-25T20:06:27.568Z,8.60
2019-01-25T20:08:58.086Z,8.27
2019-01-25T20:11:28.643Z,8.83
2019-01-25T20:14:18.235Z,8.03
2019-01-25T20:17:00.902Z,8.27
2019-01-25T20:19:43.526Z,8.50
2019-01-25T20:22:14.184Z,8.97
2019-01-25T20:24:45.195Z,8.47
2019-01-25T20:27:34.795Z,8.67
2019-01-25T20:30:27.831Z,8.30
2019-01-25T20:33:10.869Z,9.85
2019-01-25T20:35:53.635Z,9.00
2019-01-25T20:38:35.742Z,8.47
2019-01-25T20:41:18.789Z,9.07
2019-01-25T20:44:01.930Z,8.40
2019-01-25T20:46:44.093Z,8.17
2019-01-25T20:49:25.895Z,8.50
2019-01-25T20:51:56.683Z,8.10
2019-01-25T20:54:46.287Z,8.70
2019-01-25T20:57:35.894Z,8.23
2019-01-25T21:00:32.315Z,9.77
2019-01-25T21:03:21.917Z,9.03
2019-01-25T21:06:09.143Z,8.27
2019-01-25T21:11:44.393Z,9.47
2019-01-25T21:14:27.595Z,8.97
2019-01-25T21:17:10.241Z,9.30
2019-01-25T21:19:52.884Z,9.40
2019-01-25T21:22:35.425Z,8.77
2019-01-25T21:25:17.896Z,10.23
2019-01-25T21:27:49.791Z,10.83
2019-01-25T21:30:38.984Z,9.30
2019-01-25T21:33:21.639Z,10.17
2019-01-25T21:35:53.234Z,9.87
2019-01-25T21:38:42.826Z,10.43
2019-01-25T21:41:25.016Z,11.00
2019-01-25T21:46:40.653Z,12.00
2019-01-25T21:49:12.779Z,11.50
2019-01-25T21:52:02.391Z,12.37
2019-01-25T21:54:44.650Z,12.13
2019-01-25T21:57:15.226Z,12.33
2019-01-25T22:00:06.611Z,12.00
2019-01-25T22:02:49.067Z,12.47
2019-01-25T22:05:40.067Z,11.90
2019-01-25T22:08:29.083Z,11.50
2019-01-25T22:11:09.041Z,10.83
2019-01-25T22:13:52.874Z,10.87
2019-01-25T22:16:23.783Z,10.93
2019-01-25T22:19:13.367Z,11.27
2019-01-25T22:21:43.943Z,11.30
2019-01-25T22:24:14.475Z,12.17
2019-01-25T22:26:44.972Z,11.77
2019-01-25T22:29:34.559Z,12.10
2019-01-25T22:32:24.483Z,11.10
2019-01-25T22:34:56.644Z,11.07
2019-01-25T22:37:46.287Z,11.33
2019-01-25T22:40:48.299Z,11.03
2019-01-25T22:43:30.926Z,11.97
2019-01-25T22:46:13.085Z,12.53
2019-01-25T22:48:55.275Z,12.07
2019-01-25T22:51:38.029Z,12.80
2019-01-25T22:54:20.178Z,12.63
2019-01-25T22:57:02.760Z,12.07
2019-01-25T22:59:45.172Z,12.70
2019-01-25T23:02:26.917Z,13.03
2019-01-25T23:05:08.832Z,12.53
2019-01-25T23:07:39.394Z,12.93
2019-01-25T23:10:33.106Z,12.75
2019-01-25T23:13:15.279Z,12.50
2019-01-25T23:15:57.875Z,13.93
2019-01-25T23:18:39.615Z,13.30
2019-01-25T23:21:10.183Z,12.83
2019-01-25T23:23:59.792Z,12.77
2019-01-25T23:26:49.406Z,12.37
2019-01-25T23:29:31.613Z,13.93
2019-01-25T23:32:02.150Z,13.07
2019-01-25T23:34:51.754Z,12.90
2019-01-25T23:37:34.233Z,13.70
2019-01-25T23:40:15.521Z,13.70
2019-01-25T23:42:58.017Z,12.17
2019-01-25T23:45:28.575Z,12.13
2019-01-25T23:48:18.169Z,13.03
2019-01-25T23:51:00.547Z,13.73
2019-01-25T23:53:43.385Z,14.23
2019-01-25T23:56:25.448Z,13.43
2019-01-25T23:58:56.016Z,12.20
